Station Historical Data
Daily Summary for April 11, 2017 Units:  Both    English   Metric
« Previous Day
Next Day »
Daily Weekly Monthly Yearly Custom
  High: Low: Average:
Temperature: 68.0 °F /  20 °C 44.5 °F /  6.9 °C 58.9 °F /  14.9 °C
Dew Point: 56.7 °F /  13.7 °C 40.5 °F /  4.7 °C 51.5 °F /  10.8 °C
Humidity: 87% 66% 77%
Wind Speed: 13.0mph /  20.9km/h - 4mph /  6.4km/h
Wind Gust: 18.0mph /  29km/h - -
Wind- - SW
Pressure: 30.15 in /  1020.9 hPa 29.97 in /  1014.8 hPa -
Precipitation: 0.00 in /  0 mm    
Historical Graphs
 
 
Tabular Data for April 11, 2017
Time Temperature Dew Point Pressure Wind Wind Speed Wind Gust Humidity Rainfall Rate (Hourly)
00:04 59.2 °F /  15.1 °C 51.6 °F /  10.9 °C 29.98in /  1015.1hPa Calm   2.0mph /  3.2km/h 76% 0.00in /  0mm
00:09 59.1 °F /  15.1 °C 51.5 °F /  10.8 °C 29.97in /  1014.8hPa Calm     76% 0.00in /  0mm
00:14 58.9 °F /  14.9 °C 51.3 °F /  10.7 °C 29.97in /  1014.8hPa Calm     76% 0.00in /  0mm
00:19 58.7 °F /  14.8 °C 51.2 °F /  10.7 °C 29.97in /  1014.8hPa Calm     76% 0.00in /  0mm
00:24 58.5 °F /  14.7 °C 51.0 °F /  10.6 °C 29.97in /  1014.8hPa Calm     76% 0.00in /  0mm
00:29 58.4 °F /  14.7 °C 50.9 °F /  10.5 °C 29.97in /  1014.8hPa SSE 1.0mph /  1.6km/h 2.0mph /  3.2km/h 76% 0.00in /  0mm
00:34 58.2 °F /  14.6 °C 50.7 °F /  10.4 °C 29.97in /  1014.8hPa Calm   2.0mph /  3.2km/h 76% 0.00in /  0mm
00:39 58.0 °F /  14.4 °C 50.5 °F /  10.3 °C 29.97in /  1014.8hPa Calm   2.0mph /  3.2km/h 76% 0.00in /  0mm
00:44 57.8 °F /  14.3 °C 50.6 °F /  10.3 °C 29.97in /  1014.8hPa SSE 1.0mph /  1.6km/h 3.0mph /  4.8km/h 77% 0.00in /  0mm
00:49 57.7 °F /  14.3 °C 50.5 °F /  10.3 °C 29.98in /  1015.1hPa SSE 1.0mph /  1.6km/h 3.0mph /  4.8km/h 77% 0.00in /  0mm
00:54 57.5 °F /  14.2 °C 50.7 °F /  10.4 °C 29.98in /  1015.1hPa SSE 3.0mph /  4.8km/h 4.0mph /  6.4km/h 78% 0.00in /  0mm
00:59 57.5 °F /  14.2 °C 50.7 °F /  10.4 °C 29.98in /  1015.1hPa South 2.0mph /  3.2km/h 4.0mph /  6.4km/h 78% 0.00in /  0mm
01:04 57.6 °F /  14.2 °C 50.8 °F /  10.4 °C 29.98in /  1015.1hPa South 3.0mph /  4.8km/h 4.0mph /  6.4km/h 78% 0.00in /  0mm
01:09 57.6 °F /  14.2 °C 51.1 °F /  10.6 °C 29.98in /  1015.1hPa South 2.0mph /  3.2km/h 4.0mph /  6.4km/h 79% 0.00in /  0mm
01:14 57.8 °F /  14.3 °C 51.3 °F /  10.7 °C 30.00in /  1015.8hPa SSW 2.0mph /  3.2km/h 5.0mph /  8km/h 79% 0.00in /  0mm
01:19 57.8 °F /  14.3 °C 51.3 °F /  10.7 °C 29.99in /  1015.5hPa WSW 1.0mph /  1.6km/h 5.0mph /  8km/h 79% 0.00in /  0mm
01:24 57.9 °F /  14.4 °C 51.4 °F /  10.8 °C 29.98in /  1015.1hPa Calm   3.0mph /  4.8km/h 79% 0.00in /  0mm
01:29 57.9 °F /  14.4 °C 51.4 °F /  10.8 °C 29.98in /  1015.1hPa Calm     79% 0.00in /  0mm
01:34 58.0 °F /  14.4 °C 51.5 °F /  10.8 °C 29.99in /  1015.5hPa WSW 1.0mph /  1.6km/h 2.0mph /  3.2km/h 79% 0.00in /  0mm
01:39 57.9 °F /  14.4 °C 51.4 °F /  10.8 °C 29.98in /  1015.1hPa Calm   2.0mph /  3.2km/h 79% 0.00in /  0mm
01:44 57.9 °F /  14.4 °C 51.4 °F /  10.8 °C 29.98in /  1015.1hPa Calm   2.0mph /  3.2km/h 79% 0.00in /  0mm
01:49 57.9 °F /  14.4 °C 51.4 °F /  10.8 °C 29.97in /  1014.8hPa Calm     79% 0.00in /  0mm
01:54 57.9 °F /  14.4 °C 51.8 °F /  11 °C 29.97in /  1014.8hPa Calm     80% 0.00in /  0mm
01:59 57.9 °F /  14.4 °C 51.4 °F /  10.8 °C 29.97in /  1014.8hPa Calm     79% 0.00in /  0mm
02:04 57.8 °F /  14.3 °C 51.3 °F /  10.7 °C 29.97in /  1014.8hPa Calm     79% 0.00in /  0mm
02:09 57.8 °F /  14.3 °C 51.7 °F /  10.9 °C 29.98in /  1015.1hPa Calm     80% 0.00in /  0mm
02:14 57.8 °F /  14.3 °C 51.7 °F /  10.9 °C 29.98in /  1015.1hPa Calm   3.0mph /  4.8km/h 80% 0.00in /  0mm
02:19 57.8 °F /  14.3 °C 51.7 °F /  10.9 °C 29.98in /  1015.1hPa Calm   3.0mph /  4.8km/h 80% 0.00in /  0mm
02:24 57.8 °F /  14.3 °C 51.7 °F /  10.9 °C 29.99in /  1015.5hPa Calm   3.0mph /  4.8km/h 80% 0.00in /  0mm
02:29 57.7 °F /  14.3 °C 51.6 °F /  10.9 °C 29.99in /  1015.5hPa SSW 1.0mph /  1.6km/h 3.0mph /  4.8km/h 80% 0.00in /  0mm
02:34 57.7 °F /  14.3 °C 51.2 °F /  10.7 °C 29.98in /  1015.1hPa South 2.0mph /  3.2km/h 3.0mph /  4.8km/h 79% 0.00in /  0mm
02:39 57.7 °F /  14.3 °C 51.6 °F /  10.9 °C 29.98in /  1015.1hPa South 2.0mph /  3.2km/h 5.0mph /  8km/h 80% 0.00in /  0mm
02:44 57.7 °F /  14.3 °C 51.2 °F /  10.7 °C 29.98in /  1015.1hPa South 2.0mph /  3.2km/h 5.0mph /  8km/h 79% 0.00in /  0mm
02:49 57.7 °F /  14.3 °C 51.2 °F /  10.7 °C 29.98in /  1015.1hPa South 1.0mph /  1.6km/h 3.0mph /  4.8km/h 79% 0.00in /  0mm
02:54 57.7 °F /  14.3 °C 51.2 °F /  10.7 °C 29.98in /  1015.1hPa SSW 2.0mph /  3.2km/h 3.0mph /  4.8km/h 79% 0.00in /  0mm
02:59 57.6 °F /  14.2 °C 51.1 °F /  10.6 °C 29.99in /  1015.5hPa SSW 1.0mph /  1.6km/h 3.0mph /  4.8km/h 79% 0.00in /  0mm
03:04 57.4 °F /  14.1 °C 50.9 °F /  10.5 °C 29.98in /  1015.1hPa South 2.0mph /  3.2km/h 4.0mph /  6.4km/h 79% 0.00in /  0mm
03:09 57.5 °F /  14.2 °C 51.4 °F /  10.8 °C 29.98in /  1015.1hPa South 2.0mph /  3.2km/h 4.0mph /  6.4km/h 80% 0.00in /  0mm
03:14 57.4 °F /  14.1 °C 51.3 °F /  10.7 °C 29.98in /  1015.1hPa South 2.0mph /  3.2km/h 5.0mph /  8km/h 80% 0.00in /  0mm
03:19 57.5 °F /  14.2 °C 51.7 °F /  10.9 °C 29.98in /  1015.1hPa SSW 1.0mph /  1.6km/h 5.0mph /  8km/h 81% 0.00in /  0mm
03:24 57.6 °F /  14.2 °C 52.1 °F /  11.2 °C 29.99in /  1015.5hPa SW 1.0mph /  1.6km/h 9.0mph /  14.5km/h 82% 0.00in /  0mm
03:29 58.0 °F /  14.4 °C 52.5 °F /  11.4 °C 29.99in /  1015.5hPa SSW 4.0mph /  6.4km/h 8.0mph /  12.9km/h 82% 0.00in /  0mm
03:34 58.5 °F /  14.7 °C 53.0 °F /  11.7 °C 29.99in /  1015.5hPa SW 3.0mph /  4.8km/h 11.0mph /  17.7km/h 82% 0.00in /  0mm
03:39 59.1 °F /  15.1 °C 53.3 °F /  11.8 °C 29.99in /  1015.5hPa SW 5.0mph /  8km/h 11.0mph /  17.7km/h 81% 0.00in /  0mm
03:44 59.7 °F /  15.4 °C 53.5 °F /  11.9 °C 29.99in /  1015.5hPa SW 6.0mph /  9.7km/h 12.0mph /  19.3km/h 80% 0.00in /  0mm
03:49 60.2 °F /  15.7 °C 53.3 °F /  11.8 °C 29.98in /  1015.1hPa SW 6.0mph /  9.7km/h 12.0mph /  19.3km/h 78% 0.00in /  0mm
03:54 60.5 °F /  15.8 °C 53.3 °F /  11.8 °C 29.98in /  1015.1hPa SW 6.0mph /  9.7km/h 11.0mph /  17.7km/h 77% 0.00in /  0mm
03:59 60.7 °F /  15.9 °C 53.1 °F /  11.7 °C 29.99in /  1015.5hPa SW 6.0mph /  9.7km/h 11.0mph /  17.7km/h 76% 0.00in /  0mm
04:04 60.8 °F /  16 °C 52.8 °F /  11.6 °C 30.00in /  1015.8hPa SW 6.0mph /  9.7km/h 14.0mph /  22.5km/h 75% 0.00in /  0mm
04:09 60.8 °F /  16 °C 52.8 °F /  11.6 °C 30.00in /  1015.8hPa SW 6.0mph /  9.7km/h 10.0mph /  16.1km/h 75% 0.00in /  0mm
04:14 60.7 °F /  15.9 °C 52.7 °F /  11.5 °C 29.99in /  1015.5hPa SW 7.0mph /  11.3km/h 11.0mph /  17.7km/h 75% 0.00in /  0mm
04:19 60.6 °F /  15.9 °C 52.3 °F /  11.3 °C 29.99in /  1015.5hPa WSW 5.0mph /  8km/h 10.0mph /  16.1km/h 74% 0.00in /  0mm
04:24 60.3 °F /  15.7 °C 52.3 °F /  11.3 °C 29.99in /  1015.5hPa SSW 6.0mph /  9.7km/h 9.0mph /  14.5km/h 75% 0.00in /  0mm
04:29 59.9 °F /  15.5 °C 52.0 °F /  11.1 °C 30.00in /  1015.8hPa South 5.0mph /  8km/h 9.0mph /  14.5km/h 75% 0.00in /  0mm
04:34 59.5 °F /  15.3 °C 51.6 °F /  10.9 °C 29.99in /  1015.5hPa SW 5.0mph /  8km/h 10.0mph /  16.1km/h 75% 0.00in /  0mm
04:39 59.0 °F /  15 °C 51.1 °F /  10.6 °C 30.00in /  1015.8hPa SW 5.0mph /  8km/h 10.0mph /  16.1km/h 75% 0.00in /  0mm
04:44 58.6 °F /  14.8 °C 51.1 °F /  10.6 °C 30.00in /  1015.8hPa SW 5.0mph /  8km/h 10.0mph /  16.1km/h 76% 0.00in /  0mm
04:49 58.4 °F /  14.7 °C 51.2 °F /  10.7 °C 30.00in /  1015.8hPa SW 5.0mph /  8km/h 10.0mph /  16.1km/h 77% 0.00in /  0mm
04:54 58.2 °F /  14.6 °C 51.0 °F /  10.6 °C 30.01in /  1016.1hPa SW 5.0mph /  8km/h 11.0mph /  17.7km/h 77% 0.00in /  0mm
04:59 57.9 °F /  14.4 °C 50.7 °F /  10.4 °C 30.01in /  1016.1hPa SW 6.0mph /  9.7km/h 12.0mph /  19.3km/h 77% 0.00in /  0mm
05:04 57.9 °F /  14.4 °C 50.7 °F /  10.4 °C 30.01in /  1016.1hPa SW 5.0mph /  8km/h 12.0mph /  19.3km/h 77% 0.00in /  0mm
05:09 57.8 °F /  14.3 °C 50.6 °F /  10.3 °C 30.02in /  1016.5hPa SSW 7.0mph /  11.3km/h 14.0mph /  22.5km/h 77% 0.00in /  0mm
05:14 57.8 °F /  14.3 °C 50.3 °F /  10.2 °C 30.02in /  1016.5hPa SW 7.0mph /  11.3km/h 14.0mph /  22.5km/h 76% 0.00in /  0mm
05:19 57.8 °F /  14.3 °C 50.3 °F /  10.2 °C 30.02in /  1016.5hPa WSW 12.0mph /  19.3km/h 17.0mph /  27.4km/h 76% 0.00in /  0mm
05:24 57.8 °F /  14.3 °C 50.3 °F /  10.2 °C 30.02in /  1016.5hPa SW 8.0mph /  12.9km/h 17.0mph /  27.4km/h 76% 0.00in /  0mm
05:29 57.7 °F /  14.3 °C 50.2 °F /  10.1 °C 30.01in /  1016.1hPa SSW 10.0mph /  16.1km/h 17.0mph /  27.4km/h 76% 0.00in /  0mm
05:34 57.7 °F /  14.3 °C 50.2 °F /  10.1 °C 30.02in /  1016.5hPa WSW 10.0mph /  16.1km/h 17.0mph /  27.4km/h 76% 0.00in /  0mm
05:39 57.4 °F /  14.1 °C 49.9 °F /  9.9 °C 30.02in /  1016.5hPa WSW 8.0mph /  12.9km/h 14.0mph /  22.5km/h 76% 0.00in /  0mm
05:44 57.1 °F /  13.9 °C 49.6 °F /  9.8 °C 30.02in /  1016.5hPa WSW 7.0mph /  11.3km/h 14.0mph /  22.5km/h 76% 0.00in /  0mm
05:49 56.9 °F /  13.8 °C 49.8 °F /  9.9 °C 30.02in /  1016.5hPa SW 6.0mph /  9.7km/h 14.0mph /  22.5km/h 77% 0.00in /  0mm
05:54 56.6 °F /  13.7 °C 49.5 °F /  9.7 °C 30.02in /  1016.5hPa SSW 4.0mph /  6.4km/h 11.0mph /  17.7km/h 77% 0.00in /  0mm
05:59 56.3 °F /  13.5 °C 49.2 °F /  9.6 °C 30.01in /  1016.1hPa WSW 8.0mph /  12.9km/h 10.0mph /  16.1km/h 77% 0.00in /  0mm
06:04 56.0 °F /  13.3 °C 49.2 °F /  9.6 °C 30.01in /  1016.1hPa WSW 2.0mph /  3.2km/h 9.0mph /  14.5km/h 78% 0.00in /  0mm
06:09 55.7 °F /  13.2 °C 49.3 °F /  9.6 °C 30.01in /  1016.1hPa SW 9.0mph /  14.5km/h 9.0mph /  14.5km/h 79% 0.00in /  0mm
06:14 55.6 °F /  13.1 °C 49.5 °F /  9.7 °C 30.01in /  1016.1hPa SW 5.0mph /  8km/h 11.0mph /  17.7km/h 80% 0.00in /  0mm
06:19 55.5 °F /  13.1 °C 49.4 °F /  9.7 °C 30.01in /  1016.1hPa SW 5.0mph /  8km/h 11.0mph /  17.7km/h 80% 0.00in /  0mm
06:24 55.4 °F /  13 °C 49.3 °F /  9.6 °C 30.00in /  1015.8hPa SW 4.0mph /  6.4km/h 7.0mph /  11.3km/h 80% 0.00in /  0mm
06:29 55.4 °F /  13 °C 49.7 °F /  9.8 °C 29.99in /  1015.5hPa SSW 4.0mph /  6.4km/h 8.0mph /  12.9km/h 81% 0.00in /  0mm
06:34 55.6 °F /  13.1 °C 49.9 °F /  9.9 °C 30.00in /  1015.8hPa SSW 4.0mph /  6.4km/h 11.0mph /  17.7km/h 81% 0.00in /  0mm
06:39 55.8 °F /  13.2 °C 50.4 °F /  10.2 °C 30.00in /  1015.8hPa SSW 4.0mph /  6.4km/h 11.0mph /  17.7km/h 82% 0.00in /  0mm
06:44 56.1 °F /  13.4 °C 50.7 °F /  10.4 °C 30.00in /  1015.8hPa SSW 7.0mph /  11.3km/h 9.0mph /  14.5km/h 82% 0.00in /  0mm
06:49 56.4 °F /  13.6 °C 51.0 °F /  10.6 °C 30.00in /  1015.8hPa SSW 5.0mph /  8km/h 9.0mph /  14.5km/h 82% 0.01in /  0.25mm
06:54 56.7 °F /  13.7 °C 51.3 °F /  10.7 °C 30.00in /  1015.8hPa SW 4.0mph /  6.4km/h 7.0mph /  11.3km/h 82% 0.01in /  0.25mm
06:59 56.8 °F /  13.8 °C 51.0 °F /  10.6 °C 30.01in /  1016.1hPa WSW 6.0mph /  9.7km/h 6.0mph /  9.7km/h 81% 0.01in /  0.25mm
07:04 57.0 °F /  13.9 °C 51.2 °F /  10.7 °C 30.02in /  1016.5hPa WSW 2.0mph /  3.2km/h 7.0mph /  11.3km/h 81% 0.01in /  0.25mm
07:09 57.3 °F /  14.1 °C 51.2 °F /  10.7 °C 30.02in /  1016.5hPa SW 4.0mph /  6.4km/h 7.0mph /  11.3km/h 80% 0.01in /  0.25mm
07:14 57.5 °F /  14.2 °C 51.4 °F /  10.8 °C 30.02in /  1016.5hPa South 2.0mph /  3.2km/h 7.0mph /  11.3km/h 80% 0.01in /  0.25mm
07:19 57.6 °F /  14.2 °C 51.1 °F /  10.6 °C 30.02in /  1016.5hPa SSW 3.0mph /  4.8km/h 7.0mph /  11.3km/h 79% 0.01in /  0.25mm
07:24 57.8 °F /  14.3 °C 51.3 °F /  10.7 °C 30.01in /  1016.1hPa SSW 3.0mph /  4.8km/h 7.0mph /  11.3km/h 79% 0.01in /  0.25mm
07:29 57.9 °F /  14.4 °C 51.4 °F /  10.8 °C 30.02in /  1016.5hPa SSW 3.0mph /  4.8km/h 7.0mph /  11.3km/h 79% 0.01in /  0.25mm
07:34 58.1 °F /  14.5 °C 51.6 °F /  10.9 °C 30.02in /  1016.5hPa SSW 3.0mph /  4.8km/h 7.0mph /  11.3km/h 79% 0.01in /  0.25mm
07:39 58.3 °F /  14.6 °C 51.5 °F /  10.8 °C 30.01in /  1016.1hPa South 4.0mph /  6.4km/h 6.0mph /  9.7km/h 78% 0.01in /  0.25mm
07:44 58.6 °F /  14.8 °C 51.8 °F /  11 °C 30.01in /  1016.1hPa South 3.0mph /  4.8km/h 5.0mph /  8km/h 78% 0.01in /  0.25mm
07:49 58.8 °F /  14.9 °C 52.0 °F /  11.1 °C 30.01in /  1016.1hPa SSW 3.0mph /  4.8km/h 5.0mph /  8km/h 78% 0.00in /  0mm
07:54 58.9 °F /  14.9 °C 52.1 °F /  11.2 °C 30.01in /  1016.1hPa SW 1.0mph /  1.6km/h 5.0mph /  8km/h 78% 0.00in /  0mm
07:59 58.9 °F /  14.9 °C 52.1 °F /  11.2 °C 30.01in /  1016.1hPa Calm   3.0mph /  4.8km/h 78% 0.00in /  0mm
08:04 59.0 °F /  15 °C 52.1 °F /  11.2 °C 30.02in /  1016.5hPa Calm   2.0mph /  3.2km/h 78% 0.00in /  0mm
08:09 59.5 °F /  15.3 °C 52.3 °F /  11.3 °C 30.01in /  1016.1hPa Calm   3.0mph /  4.8km/h 77% 0.00in /  0mm
08:14 59.8 °F /  15.4 °C 52.6 °F /  11.4 °C 30.01in /  1016.1hPa West 2.0mph /  3.2km/h 4.0mph /  6.4km/h 77% 0.00in /  0mm
08:19 60.2 °F /  15.7 °C 52.6 °F /  11.4 °C 30.01in /  1016.1hPa West 1.0mph /  1.6km/h 4.0mph /  6.4km/h 76% 0.00in /  0mm
08:24 60.5 °F /  15.8 °C 52.9 °F /  11.6 °C 30.01in /  1016.1hPa SW 3.0mph /  4.8km/h 4.0mph /  6.4km/h 76% 0.00in /  0mm
08:29 61.1 °F /  16.2 °C 53.5 °F /  11.9 °C 30.01in /  1016.1hPa SW 4.0mph /  6.4km/h 6.0mph /  9.7km/h 76% 0.00in /  0mm
08:34 61.8 °F /  16.6 °C 53.8 °F /  12.1 °C 30.01in /  1016.1hPa WSW 4.0mph /  6.4km/h 4.0mph /  6.4km/h 75% 0.00in /  0mm
08:39 62.0 °F /  16.7 °C 53.6 °F /  12 °C 30.02in /  1016.5hPa WSW 3.0mph /  4.8km/h 6.0mph /  9.7km/h 74% 0.00in /  0mm
08:44 62.2 °F /  16.8 °C 53.8 °F /  12.1 °C 30.02in /  1016.5hPa WSW 3.0mph /  4.8km/h 5.0mph /  8km/h 74% 0.00in /  0mm
08:49 62.4 °F /  16.9 °C 53.6 °F /  12 °C 30.02in /  1016.5hPa WSW 4.0mph /  6.4km/h 5.0mph /  8km/h 73% 0.00in /  0mm
08:54 62.7 °F /  17.1 °C 53.9 °F /  12.2 °C 30.02in /  1016.5hPa WSW 2.0mph /  3.2km/h 5.0mph /  8km/h 73% 0.00in /  0mm
08:59 62.9 °F /  17.2 °C 54.1 °F /  12.3 °C 30.03in /  1016.8hPa WSW 3.0mph /  4.8km/h 7.0mph /  11.3km/h 73% 0.00in /  0mm
09:04 63.2 °F /  17.3 °C 54.0 °F /  12.2 °C 30.03in /  1016.8hPa WSW 3.0mph /  4.8km/h 8.0mph /  12.9km/h 72% 0.00in /  0mm
09:09 63.3 °F /  17.4 °C 53.7 °F /  12.1 °C 30.03in /  1016.8hPa WSW 3.0mph /  4.8km/h 8.0mph /  12.9km/h 71% 0.00in /  0mm
09:14 63.2 °F /  17.3 °C 53.6 °F /  12 °C 30.04in /  1017.2hPa WSW 3.0mph /  4.8km/h 8.0mph /  12.9km/h 71% 0.00in /  0mm
09:19 63.2 °F /  17.3 °C 53.3 °F /  11.8 °C 30.04in /  1017.2hPa SW 3.0mph /  4.8km/h 6.0mph /  9.7km/h 70% 0.00in /  0mm
09:24 63.3 °F /  17.4 °C 53.3 °F /  11.8 °C 30.03in /  1016.8hPa WSW 3.0mph /  4.8km/h 9.0mph /  14.5km/h 70% 0.00in /  0mm
09:29 63.2 °F /  17.3 °C 52.9 °F /  11.6 °C 30.03in /  1016.8hPa WSW 3.0mph /  4.8km/h 9.0mph /  14.5km/h 69% 0.00in /  0mm
09:34 63.1 °F /  17.3 °C 53.2 °F /  11.8 °C 30.03in /  1016.8hPa WSW 4.0mph /  6.4km/h 7.0mph /  11.3km/h 70% 0.00in /  0mm
09:39 63.1 °F /  17.3 °C 53.2 °F /  11.8 °C 30.03in /  1016.8hPa SSW 2.0mph /  3.2km/h 8.0mph /  12.9km/h 70% 0.00in /  0mm
09:44 63.0 °F /  17.2 °C 53.1 °F /  11.7 °C 30.03in /  1016.8hPa WSW 3.0mph /  4.8km/h 7.0mph /  11.3km/h 70% 0.00in /  0mm
09:49 63.2 °F /  17.3 °C 53.3 °F /  11.8 °C 30.04in /  1017.2hPa WSW 6.0mph /  9.7km/h 8.0mph /  12.9km/h 70% 0.00in /  0mm
09:54 63.4 °F /  17.4 °C 53.0 °F /  11.7 °C 30.04in /  1017.2hPa West 4.0mph /  6.4km/h 11.0mph /  17.7km/h 69% 0.00in /  0mm
09:59 63.8 °F /  17.7 °C 53.4 °F /  11.9 °C 30.04in /  1017.2hPa WSW 5.0mph /  8km/h 11.0mph /  17.7km/h 69% 0.00in /  0mm
10:04 63.8 °F /  17.7 °C 53.0 °F /  11.7 °C 30.04in /  1017.2hPa WSW 4.0mph /  6.4km/h 9.0mph /  14.5km/h 68% 0.00in /  0mm
10:09 63.5 °F /  17.5 °C 52.7 °F /  11.5 °C 30.04in /  1017.2hPa WSW 4.0mph /  6.4km/h 10.0mph /  16.1km/h 68% 0.00in /  0mm
10:14 63.4 °F /  17.4 °C 53.0 °F /  11.7 °C 30.04in /  1017.2hPa West 4.0mph /  6.4km/h 6.0mph /  9.7km/h 69% 0.00in /  0mm
10:19 63.2 °F /  17.3 °C 52.9 °F /  11.6 °C 30.04in /  1017.2hPa West 5.0mph /  8km/h 7.0mph /  11.3km/h 69% 0.00in /  0mm
10:24 63.3 °F /  17.4 °C 52.6 °F /  11.4 °C 30.04in /  1017.2hPa West 3.0mph /  4.8km/h 9.0mph /  14.5km/h 68% 0.00in /  0mm
10:29 63.5 °F /  17.5 °C 53.1 °F /  11.7 °C 30.04in /  1017.2hPa WSW 3.0mph /  4.8km/h 9.0mph /  14.5km/h 69% 0.00in /  0mm
10:34 63.6 °F /  17.6 °C 53.2 °F /  11.8 °C 30.04in /  1017.2hPa WSW 2.0mph /  3.2km/h 5.0mph /  8km/h 69% 0.00in /  0mm
10:39 63.9 °F /  17.7 °C 53.1 °F /  11.7 °C 30.04in /  1017.2hPa WSW 3.0mph /  4.8km/h 5.0mph /  8km/h 68% 0.00in /  0mm
10:44 63.9 °F /  17.7 °C 53.1 °F /  11.7 °C 30.04in /  1017.2hPa SW 3.0mph /  4.8km/h 6.0mph /  9.7km/h 68% 0.00in /  0mm
10:49 63.7 °F /  17.6 °C 52.5 °F /  11.4 °C 30.04in /  1017.2hPa SW 3.0mph /  4.8km/h 7.0mph /  11.3km/h 67% 0.00in /  0mm
10:54 63.4 °F /  17.4 °C 52.7 °F /  11.5 °C 30.04in /  1017.2hPa SW 3.0mph /  4.8km/h 8.0mph /  12.9km/h 68% 0.00in /  0mm
10:59 63.2 °F /  17.3 °C 52.5 °F /  11.4 °C 30.05in /  1017.5hPa SW 3.0mph /  4.8km/h 7.0mph /  11.3km/h 68% 0.00in /  0mm
11:04 63.4 °F /  17.4 °C 53.0 °F /  11.7 °C 30.05in /  1017.5hPa SW 3.0mph /  4.8km/h 7.0mph /  11.3km/h 69% 0.00in /  0mm
11:09 63.6 °F /  17.6 °C 53.2 °F /  11.8 °C 30.05in /  1017.5hPa SW 5.0mph /  8km/h 7.0mph /  11.3km/h 69% 0.00in /  0mm
11:14 63.4 °F /  17.4 °C 52.7 °F /  11.5 °C 30.05in /  1017.5hPa SW 2.0mph /  3.2km/h 9.0mph /  14.5km/h 68% 0.00in /  0mm
11:19 63.4 °F /  17.4 °C 53.0 °F /  11.7 °C 30.05in /  1017.5hPa SW 2.0mph /  3.2km/h 4.0mph /  6.4km/h 69% 0.00in /  0mm
11:24 63.5 °F /  17.5 °C 53.1 °F /  11.7 °C 30.05in /  1017.5hPa WSW 1.0mph /  1.6km/h 4.0mph /  6.4km/h 69% 0.00in /  0mm
11:29 63.4 °F /  17.4 °C 53.0 °F /  11.7 °C 30.05in /  1017.5hPa WSW 2.0mph /  3.2km/h 5.0mph /  8km/h 69% 0.00in /  0mm
11:34 63.3 °F /  17.4 °C 52.6 °F /  11.4 °C 30.05in /  1017.5hPa SW 2.0mph /  3.2km/h 5.0mph /  8km/h 68% 0.00in /  0mm
11:39 63.3 °F /  17.4 °C 52.6 °F /  11.4 °C 30.05in /  1017.5hPa SW 2.0mph /  3.2km/h 5.0mph /  8km/h 68% 0.00in /  0mm
11:44 63.3 °F /  17.4 °C 53.3 °F /  11.8 °C 30.06in /  1017.8hPa SW 2.0mph /  3.2km/h 4.0mph /  6.4km/h 70% 0.00in /  0mm
11:49 63.1 °F /  17.3 °C 52.8 °F /  11.6 °C 30.06in /  1017.8hPa WSW 2.0mph /  3.2km/h 4.0mph /  6.4km/h 69% 0.00in /  0mm
11:54 62.8 °F /  17.1 °C 52.5 °F /  11.4 °C 30.06in /  1017.8hPa WSW 2.0mph /  3.2km/h 5.0mph /  8km/h 69% 0.00in /  0mm
11:59 62.5 °F /  16.9 °C 52.6 °F /  11.4 °C 30.06in /  1017.8hPa SW 3.0mph /  4.8km/h 5.0mph /  8km/h 70% 0.00in /  0mm
12:04 62.5 °F /  16.9 °C 52.6 °F /  11.4 °C 30.06in /  1017.8hPa South 1.0mph /  1.6km/h 4.0mph /  6.4km/h 70% 0.00in /  0mm
12:09 62.3 °F /  16.8 °C 52.4 °F /  11.3 °C 30.06in /  1017.8hPa SW 1.0mph /  1.6km/h 6.0mph /  9.7km/h 70% 0.00in /  0mm
12:14 62.1 °F /  16.7 °C 52.6 °F /  11.4 °C 30.07in /  1018.2hPa WSW 2.0mph /  3.2km/h 5.0mph /  8km/h 71% 0.00in /  0mm
12:19 61.9 °F /  16.6 °C 52.8 °F /  11.6 °C 30.07in /  1018.2hPa SSW 3.0mph /  4.8km/h 7.0mph /  11.3km/h 72% 0.00in /  0mm
12:24 61.5 °F /  16.4 °C 52.8 °F /  11.6 °C 30.05in /  1017.5hPa South 3.0mph /  4.8km/h 8.0mph /  12.9km/h 73% 0.00in /  0mm
12:29 60.8 °F /  16 °C 52.8 °F /  11.6 °C 30.08in /  1018.5hPa WSW 3.0mph /  4.8km/h 10.0mph /  16.1km/h 75% 0.00in /  0mm
12:34 59.6 °F /  15.3 °C 52.0 °F /  11.1 °C 30.06in /  1017.8hPa WSW 6.0mph /  9.7km/h 12.0mph /  19.3km/h 76% 0.00in /  0mm
12:39 58.6 °F /  14.8 °C 51.8 °F /  11 °C 30.08in /  1018.5hPa SW 6.0mph /  9.7km/h 12.0mph /  19.3km/h 78% 0.00in /  0mm
12:44 58.1 °F /  14.5 °C 51.6 °F /  10.9 °C 30.07in /  1018.2hPa SW 5.0mph /  8km/h 7.0mph /  11.3km/h 79% 0.00in /  0mm
12:49 57.9 °F /  14.4 °C 51.8 °F /  11 °C 30.05in /  1017.5hPa South 4.0mph /  6.4km/h 7.0mph /  11.3km/h 80% 0.00in /  0mm
12:54 58.1 °F /  14.5 °C 52.3 °F /  11.3 °C 30.07in /  1018.2hPa SW 3.0mph /  4.8km/h 6.0mph /  9.7km/h 81% 0.00in /  0mm
12:59 58.2 °F /  14.6 °C 52.4 °F /  11.3 °C 30.05in /  1017.5hPa SSW 3.0mph /  4.8km/h 6.0mph /  9.7km/h 81% 0.00in /  0mm
13:04 59.0 °F /  15 °C 53.2 °F /  11.8 °C 30.07in /  1018.2hPa SSW 4.0mph /  6.4km/h 7.0mph /  11.3km/h 81% 0.00in /  0mm
13:09 59.3 °F /  15.2 °C 53.5 °F /  11.9 °C 30.08in /  1018.5hPa SSW 4.0mph /  6.4km/h 8.0mph /  12.9km/h 81% 0.00in /  0mm
13:14 59.8 °F /  15.4 °C 54.0 °F /  12.2 °C 30.07in /  1018.2hPa SW 4.0mph /  6.4km/h 8.0mph /  12.9km/h 81% 0.00in /  0mm
13:19 60.4 °F /  15.8 °C 54.5 °F /  12.5 °C 30.07in /  1018.2hPa SSW 3.0mph /  4.8km/h 9.0mph /  14.5km/h 81% 0.00in /  0mm
13:24 61.1 °F /  16.2 °C 55.2 °F /  12.9 °C 30.08in /  1018.5hPa SSW 3.0mph /  4.8km/h 8.0mph /  12.9km/h 81% 0.00in /  0mm
13:29 61.4 °F /  16.3 °C 55.2 °F /  12.9 °C 30.08in /  1018.5hPa SSW 5.0mph /  8km/h 8.0mph /  12.9km/h 80% 0.00in /  0mm
13:34 61.4 °F /  16.3 °C 54.8 °F /  12.7 °C 30.08in /  1018.5hPa SSW 5.0mph /  8km/h 12.0mph /  19.3km/h 79% 0.00in /  0mm
13:39 61.3 °F /  16.3 °C 54.7 °F /  12.6 °C 30.08in /  1018.5hPa SSW 2.0mph /  3.2km/h 10.0mph /  16.1km/h 79% 0.00in /  0mm
13:44 61.2 °F /  16.2 °C 54.6 °F /  12.6 °C 30.07in /  1018.2hPa South 4.0mph /  6.4km/h 8.0mph /  12.9km/h 79% 0.00in /  0mm
13:49 61.0 °F /  16.1 °C 54.8 °F /  12.7 °C 30.06in /  1017.8hPa SSW 3.0mph /  4.8km/h 9.0mph /  14.5km/h 80% 0.00in /  0mm
13:54 61.0 °F /  16.1 °C 54.8 °F /  12.7 °C 30.06in /  1017.8hPa SSW 4.0mph /  6.4km/h 9.0mph /  14.5km/h 80% 0.00in /  0mm
13:59 61.2 °F /  16.2 °C 55.0 °F /  12.8 °C 30.07in /  1018.2hPa SW 4.0mph /  6.4km/h 8.0mph /  12.9km/h 80% 0.00in /  0mm
14:04 61.4 °F /  16.3 °C 54.8 °F /  12.7 °C 30.07in /  1018.2hPa SSW 5.0mph /  8km/h 12.0mph /  19.3km/h 79% 0.00in /  0mm
14:09 61.6 °F /  16.4 °C 54.7 °F /  12.6 °C 30.07in /  1018.2hPa SSW 5.0mph /  8km/h 12.0mph /  19.3km/h 78% 0.00in /  0mm
14:14 61.8 °F /  16.6 °C 54.9 °F /  12.7 °C 30.07in /  1018.2hPa South 5.0mph /  8km/h 11.0mph /  17.7km/h 78% 0.00in /  0mm
14:19 62.0 °F /  16.7 °C 54.7 °F /  12.6 °C 30.07in /  1018.2hPa SW 7.0mph /  11.3km/h 10.0mph /  16.1km/h 77% 0.00in /  0mm
14:24 62.2 °F /  16.8 °C 54.5 °F /  12.5 °C 30.07in /  1018.2hPa SSW 10.0mph /  16.1km/h 13.0mph /  20.9km/h 76% 0.00in /  0mm
14:29 62.3 °F /  16.8 °C 54.3 °F /  12.4 °C 30.07in /  1018.2hPa South 3.0mph /  4.8km/h 13.0mph /  20.9km/h 75% 0.00in /  0mm
14:34 62.3 °F /  16.8 °C 54.3 °F /  12.4 °C 30.07in /  1018.2hPa SSW 5.0mph /  8km/h 13.0mph /  20.9km/h 75% 0.00in /  0mm
14:39 62.6 °F /  17 °C 54.6 °F /  12.6 °C 30.06in /  1017.8hPa SSW 6.0mph /  9.7km/h 14.0mph /  22.5km/h 75% 0.00in /  0mm
14:44 62.9 °F /  17.2 °C 54.9 °F /  12.7 °C 30.06in /  1017.8hPa SW 1.0mph /  1.6km/h 8.0mph /  12.9km/h 75% 0.00in /  0mm
14:49 62.8 °F /  17.1 °C 54.8 °F /  12.7 °C 30.07in /  1018.2hPa SSW 6.0mph /  9.7km/h 11.0mph /  17.7km/h 75% 0.00in /  0mm
14:54 62.6 °F /  17 °C 54.2 °F /  12.3 °C 30.07in /  1018.2hPa South 5.0mph /  8km/h 14.0mph /  22.5km/h 74% 0.00in /  0mm
14:59 62.3 °F /  16.8 °C 54.3 °F /  12.4 °C 30.06in /  1017.8hPa SW 5.0mph /  8km/h 15.0mph /  24.1km/h 75% 0.00in /  0mm
15:04 62.4 °F /  16.9 °C 54.7 °F /  12.6 °C 30.06in /  1017.8hPa SSW 7.0mph /  11.3km/h 15.0mph /  24.1km/h 76% 0.00in /  0mm
15:09 63.3 °F /  17.4 °C 55.6 °F /  13.1 °C 30.06in /  1017.8hPa SSW 6.0mph /  9.7km/h 10.0mph /  16.1km/h 76% 0.00in /  0mm
15:14 64.0 °F /  17.8 °C 55.5 °F /  13.1 °C 30.06in /  1017.8hPa SSW 6.0mph /  9.7km/h 13.0mph /  20.9km/h 74% 0.00in /  0mm
15:19 64.5 °F /  18.1 °C 56.0 °F /  13.3 °C 30.06in /  1017.8hPa WSW 3.0mph /  4.8km/h 11.0mph /  17.7km/h 74% 0.00in /  0mm
15:24 65.4 °F /  18.6 °C 56.1 °F /  13.4 °C 30.06in /  1017.8hPa SSW 5.0mph /  8km/h 9.0mph /  14.5km/h 72% 0.00in /  0mm
15:29 66.0 °F /  18.9 °C 56.3 °F /  13.5 °C 30.06in /  1017.8hPa SSW 5.0mph /  8km/h 10.0mph /  16.1km/h 71% 0.00in /  0mm
15:34 66.8 °F /  19.3 °C 56.3 °F /  13.5 °C 30.05in /  1017.5hPa SSW 6.0mph /  9.7km/h 12.0mph /  19.3km/h 69% 0.00in /  0mm
15:39 65.8 °F /  18.8 °C 55.3 °F /  12.9 °C 30.06in /  1017.8hPa SSW 6.0mph /  9.7km/h 13.0mph /  20.9km/h 69% 0.00in /  0mm
15:44 66.2 °F /  19 °C 56.5 °F /  13.6 °C 30.05in /  1017.5hPa SW 5.0mph /  8km/h 11.0mph /  17.7km/h 71% 0.00in /  0mm
15:49 66.4 °F /  19.1 °C 55.9 °F /  13.3 °C 30.05in /  1017.5hPa SSW 6.0mph /  9.7km/h 15.0mph /  24.1km/h 69% 0.00in /  0mm
15:54 66.7 °F /  19.3 °C 56.2 °F /  13.4 °C 30.05in /  1017.5hPa South 6.0mph /  9.7km/h 12.0mph /  19.3km/h 69% 0.00in /  0mm
15:59 67.0 °F /  19.4 °C 56.1 °F /  13.4 °C 30.05in /  1017.5hPa SSW 6.0mph /  9.7km/h 10.0mph /  16.1km/h 68% 0.00in /  0mm
16:04 67.2 °F /  19.6 °C 56.7 °F /  13.7 °C 30.05in /  1017.5hPa SW 6.0mph /  9.7km/h 12.0mph /  19.3km/h 69% 0.00in /  0mm
16:09 68.0 °F /  20 °C 56.2 °F /  13.4 °C 30.05in /  1017.5hPa SW 6.0mph /  9.7km/h 12.0mph /  19.3km/h 66% 0.00in /  0mm
16:14 67.0 °F /  19.4 °C 55.7 °F /  13.2 °C 30.05in /  1017.5hPa SW 6.0mph /  9.7km/h 13.0mph /  20.9km/h 67% 0.00in /  0mm
16:19 66.4 °F /  19.1 °C 55.1 °F /  12.8 °C 30.05in /  1017.5hPa SW 6.0mph /  9.7km/h 16.0mph /  25.7km/h 67% 0.00in /  0mm
16:24 66.2 °F /  19 °C 55.7 °F /  13.2 °C 30.05in /  1017.5hPa West 3.0mph /  4.8km/h 11.0mph /  17.7km/h 69% 0.00in /  0mm
16:29 66.0 °F /  18.9 °C 55.1 °F /  12.8 °C 30.05in /  1017.5hPa WSW 7.0mph /  11.3km/h 12.0mph /  19.3km/h 68% 0.00in /  0mm
16:34 65.4 °F /  18.6 °C 54.6 °F /  12.6 °C 30.05in /  1017.5hPa SW 10.0mph /  16.1km/h 13.0mph /  20.9km/h 68% 0.00in /  0mm
16:39 65.0 °F /  18.3 °C 54.6 °F /  12.6 °C 30.05in /  1017.5hPa SW 7.0mph /  11.3km/h 13.0mph /  20.9km/h 69% 0.00in /  0mm
16:44 64.8 °F /  18.2 °C 54.8 °F /  12.7 °C 30.05in /  1017.5hPa SW 6.0mph /  9.7km/h 11.0mph /  17.7km/h 70% 0.00in /  0mm
16:49 64.4 °F /  18 °C 54.4 °F /  12.4 °C 30.05in /  1017.5hPa WSW 7.0mph /  11.3km/h 11.0mph /  17.7km/h 70% 0.00in /  0mm
16:54 64.2 °F /  17.9 °C 54.6 °F /  12.6 °C 30.05in /  1017.5hPa SSW 6.0mph /  9.7km/h 9.0mph /  14.5km/h 71% 0.00in /  0mm
16:59 63.9 °F /  17.7 °C 54.3 °F /  12.4 °C 30.05in /  1017.5hPa South 5.0mph /  8km/h 9.0mph /  14.5km/h 71% 0.00in /  0mm
17:04 63.9 °F /  17.7 °C 54.7 °F /  12.6 °C 30.05in /  1017.5hPa SW 3.0mph /  4.8km/h 7.0mph /  11.3km/h 72% 0.00in /  0mm
17:09 63.9 °F /  17.7 °C 54.3 °F /  12.4 °C 30.05in /  1017.5hPa SW 4.0mph /  6.4km/h 8.0mph /  12.9km/h 71% 0.00in /  0mm
17:14 63.7 °F /  17.6 °C 54.5 °F /  12.5 °C 30.06in /  1017.8hPa SW 4.0mph /  6.4km/h 8.0mph /  12.9km/h 72% 0.00in /  0mm
17:19 63.4 °F /  17.4 °C 54.6 °F /  12.6 °C 30.05in /  1017.5hPa SW 4.0mph /  6.4km/h 10.0mph /  16.1km/h 73% 0.00in /  0mm
17:24 63.0 °F /  17.2 °C 54.2 °F /  12.3 °C 30.05in /  1017.5hPa WSW 5.0mph /  8km/h 10.0mph /  16.1km/h 73% 0.00in /  0mm
17:29 62.8 °F /  17.1 °C 54.4 °F /  12.4 °C 30.06in /  1017.8hPa WSW 5.0mph /  8km/h 9.0mph /  14.5km/h 74% 0.00in /  0mm
17:34 62.6 °F /  17 °C 53.8 °F /  12.1 °C 30.06in /  1017.8hPa WSW 4.0mph /  6.4km/h 9.0mph /  14.5km/h 73% 0.00in /  0mm
17:39 62.5 °F /  16.9 °C 54.1 °F /  12.3 °C 30.05in /  1017.5hPa SW 3.0mph /  4.8km/h 5.0mph /  8km/h 74% 0.00in /  0mm
17:44 62.6 °F /  17 °C 54.2 °F /  12.3 °C 30.06in /  1017.8hPa SW 3.0mph /  4.8km/h 8.0mph /  12.9km/h 74% 0.00in /  0mm
17:49 62.7 °F /  17.1 °C 54.3 °F /  12.4 °C 30.06in /  1017.8hPa SW 3.0mph /  4.8km/h 8.0mph /  12.9km/h 74% 0.00in /  0mm
17:54 62.8 °F /  17.1 °C 54.0 °F /  12.2 °C 30.05in /  1017.5hPa SSW 4.0mph /  6.4km/h 8.0mph /  12.9km/h 73% 0.00in /  0mm
17:59 62.7 °F /  17.1 °C 54.3 °F /  12.4 °C 30.06in /  1017.8hPa WSW 6.0mph /  9.7km/h 9.0mph /  14.5km/h 74% 0.00in /  0mm
18:04 62.6 °F /  17 °C 54.2 °F /  12.3 °C 30.06in /  1017.8hPa SSW 5.0mph /  8km/h 11.0mph /  17.7km/h 74% 0.00in /  0mm
18:09 62.3 °F /  16.8 °C 53.9 °F /  12.2 °C 30.06in /  1017.8hPa SSW 7.0mph /  11.3km/h 8.0mph /  12.9km/h 74% 0.00in /  0mm
18:14 62.0 °F /  16.7 °C 53.6 °F /  12 °C 30.06in /  1017.8hPa SW 5.0mph /  8km/h 8.0mph /  12.9km/h 74% 0.00in /  0mm
18:19 61.6 °F /  16.4 °C 53.6 °F /  12 °C 30.07in /  1018.2hPa SW 5.0mph /  8km/h 10.0mph /  16.1km/h 75% 0.00in /  0mm
18:24 61.3 °F /  16.3 °C 53.7 °F /  12.1 °C 30.06in /  1017.8hPa WSW 5.0mph /  8km/h 10.0mph /  16.1km/h 76% 0.00in /  0mm
18:29 61.3 °F /  16.3 °C 53.7 °F /  12.1 °C 30.06in /  1017.8hPa WSW 4.0mph /  6.4km/h 9.0mph /  14.5km/h 76% 0.00in /  0mm
18:34 61.2 °F /  16.2 °C 53.6 °F /  12 °C 30.05in /  1017.5hPa WSW 4.0mph /  6.4km/h 9.0mph /  14.5km/h 76% 0.00in /  0mm
18:39 60.8 °F /  16 °C 53.2 °F /  11.8 °C 30.05in /  1017.5hPa WSW 3.0mph /  4.8km/h 10.0mph /  16.1km/h 76% 0.00in /  0mm
18:44 60.6 °F /  15.9 °C 53.3 °F /  11.8 °C 30.05in /  1017.5hPa WSW 4.0mph /  6.4km/h 10.0mph /  16.1km/h 77% 0.00in /  0mm
18:49 60.5 °F /  15.8 °C 53.3 °F /  11.8 °C 30.05in /  1017.5hPa SW 6.0mph /  9.7km/h 6.0mph /  9.7km/h 77% 0.00in /  0mm
18:54 60.4 °F /  15.8 °C 53.2 °F /  11.8 °C 30.05in /  1017.5hPa WSW 4.0mph /  6.4km/h 6.0mph /  9.7km/h 77% 0.00in /  0mm
18:59 60.2 °F /  15.7 °C 53.0 °F /  11.7 °C 30.05in /  1017.5hPa SW 3.0mph /  4.8km/h 4.0mph /  6.4km/h 77% 0.00in /  0mm
19:04 59.9 °F /  15.5 °C 52.7 °F /  11.5 °C 30.05in /  1017.5hPa SSW 3.0mph /  4.8km/h 4.0mph /  6.4km/h 77% 0.00in /  0mm
19:09 59.6 °F /  15.3 °C 52.7 °F /  11.5 °C 30.05in /  1017.5hPa SSW 2.0mph /  3.2km/h 5.0mph /  8km/h 78% 0.00in /  0mm
19:14 59.3 °F /  15.2 °C 52.8 °F /  11.6 °C 30.05in /  1017.5hPa South 4.0mph /  6.4km/h 6.0mph /  9.7km/h 79% 0.00in /  0mm
19:19 59.0 °F /  15 °C 52.5 °F /  11.4 °C 30.04in /  1017.2hPa SSW 3.0mph /  4.8km/h 6.0mph /  9.7km/h 79% 0.00in /  0mm
19:24 58.8 °F /  14.9 °C 52.3 °F /  11.3 °C 30.04in /  1017.2hPa SSW 3.0mph /  4.8km/h 7.0mph /  11.3km/h 79% 0.00in /  0mm
19:29 58.4 °F /  14.7 °C 52.3 °F /  11.3 °C 30.04in /  1017.2hPa SSW 3.0mph /  4.8km/h 7.0mph /  11.3km/h 80% 0.00in /  0mm
19:34 58.1 °F /  14.5 °C 52.0 °F /  11.1 °C 30.04in /  1017.2hPa SSW 3.0mph /  4.8km/h 5.0mph /  8km/h 80% 0.00in /  0mm
19:39 57.8 °F /  14.3 °C 51.7 °F /  10.9 °C 30.04in /  1017.2hPa SSW 1.0mph /  1.6km/h 7.0mph /  11.3km/h 80% 0.00in /  0mm
19:44 57.6 °F /  14.2 °C 51.8 °F /  11 °C 30.05in /  1017.5hPa WSW 3.0mph /  4.8km/h 6.0mph /  9.7km/h 81% 0.00in /  0mm
19:49 57.4 °F /  14.1 °C 51.6 °F /  10.9 °C 30.04in /  1017.2hPa SSW 3.0mph /  4.8km/h 6.0mph /  9.7km/h 81% 0.00in /  0mm
19:54 57.3 °F /  14.1 °C 51.5 °F /  10.8 °C 30.05in /  1017.5hPa SSW 2.0mph /  3.2km/h 5.0mph /  8km/h 81% 0.00in /  0mm
19:59 57.2 °F /  14 °C 51.4 °F /  10.8 °C 30.05in /  1017.5hPa WSW 5.0mph /  8km/h 10.0mph /  16.1km/h 81% 0.00in /  0mm
20:04 57.1 °F /  13.9 °C 51.3 °F /  10.7 °C 30.05in /  1017.5hPa West 3.0mph /  4.8km/h 9.0mph /  14.5km/h 81% 0.00in /  0mm
20:09 57.2 °F /  14 °C 51.8 °F /  11 °C 30.05in /  1017.5hPa WSW 3.0mph /  4.8km/h 7.0mph /  11.3km/h 82% 0.00in /  0mm
20:14 57.3 °F /  14.1 °C 52.2 °F /  11.2 °C 30.06in /  1017.8hPa West 4.0mph /  6.4km/h 8.0mph /  12.9km/h 83% 0.00in /  0mm
20:19 57.7 °F /  14.3 °C 52.9 °F /  11.6 °C 30.05in /  1017.5hPa WSW 4.0mph /  6.4km/h 10.0mph /  16.1km/h 84% 0.00in /  0mm
20:24 58.1 °F /  14.5 °C 53.3 °F /  11.8 °C 30.05in /  1017.5hPa WSW 5.0mph /  8km/h 10.0mph /  16.1km/h 84% 0.00in /  0mm
20:29 58.2 °F /  14.6 °C 53.4 °F /  11.9 °C 30.05in /  1017.5hPa WSW 4.0mph /  6.4km/h 8.0mph /  12.9km/h 84% 0.00in /  0mm
20:34 58.3 °F /  14.6 °C 53.5 °F /  11.9 °C 30.05in /  1017.5hPa West 3.0mph /  4.8km/h 8.0mph /  12.9km/h 84% 0.00in /  0mm
20:39 58.3 °F /  14.6 °C 53.5 °F /  11.9 °C 30.06in /  1017.8hPa WSW 3.0mph /  4.8km/h 7.0mph /  11.3km/h 84% 0.00in /  0mm
20:44 58.2 °F /  14.6 °C 53.1 °F /  11.7 °C 30.06in /  1017.8hPa WSW 3.0mph /  4.8km/h 6.0mph /  9.7km/h 83% 0.00in /  0mm
20:49 57.9 °F /  14.4 °C 52.4 °F /  11.3 °C 30.07in /  1018.2hPa SW 4.0mph /  6.4km/h 6.0mph /  9.7km/h 82% 0.00in /  0mm
20:54 57.1 °F /  13.9 °C 51.3 °F /  10.7 °C 30.07in /  1018.2hPa SW 4.0mph /  6.4km/h 8.0mph /  12.9km/h 81% 0.00in /  0mm
20:59 56.4 °F /  13.6 °C 50.6 °F /  10.3 °C 30.07in /  1018.2hPa SW 6.0mph /  9.7km/h 13.0mph /  20.9km/h 81% 0.00in /  0mm
21:04 55.2 °F /  12.9 °C 49.1 °F /  9.5 °C 30.08in /  1018.5hPa SW 7.0mph /  11.3km/h 15.0mph /  24.1km/h 80% 0.00in /  0mm
21:09 53.8 °F /  12.1 °C 48.1 °F /  8.9 °C 30.09in /  1018.8hPa SSW 7.0mph /  11.3km/h 15.0mph /  24.1km/h 81% 0.00in /  0mm
21:14 52.8 °F /  11.6 °C 47.1 °F /  8.4 °C 30.09in /  1018.8hPa SW 11.0mph /  17.7km/h 18.0mph /  29km/h 81% 0.00in /  0mm
21:19 52.4 °F /  11.3 °C 46.4 °F /  8 °C 30.09in /  1018.8hPa SW 8.0mph /  12.9km/h 18.0mph /  29km/h 80% 0.00in /  0mm
21:24 52.2 °F /  11.2 °C 45.9 °F /  7.7 °C 30.09in /  1018.8hPa WSW 6.0mph /  9.7km/h 16.0mph /  25.7km/h 79% 0.00in /  0mm
21:29 51.8 °F /  11 °C 45.2 °F /  7.3 °C 30.10in /  1019.2hPa SW 13.0mph /  20.9km/h 18.0mph /  29km/h 78% 0.00in /  0mm
21:34 51.4 °F /  10.8 °C 44.8 °F /  7.1 °C 30.10in /  1019.2hPa WSW 8.0mph /  12.9km/h 15.0mph /  24.1km/h 78% 0.00in /  0mm
21:39 51.0 °F /  10.6 °C 44.4 °F /  6.9 °C 30.10in /  1019.2hPa SSW 11.0mph /  17.7km/h 13.0mph /  20.9km/h 78% 0.00in /  0mm
21:44 50.9 °F /  10.5 °C 44.3 °F /  6.8 °C 30.10in /  1019.2hPa SW 6.0mph /  9.7km/h 11.0mph /  17.7km/h 78% 0.00in /  0mm
21:49 50.8 °F /  10.4 °C 44.2 °F /  6.8 °C 30.11in /  1019.5hPa WSW 4.0mph /  6.4km/h 12.0mph /  19.3km/h 78% 0.00in /  0mm
21:54 50.5 °F /  10.3 °C 43.9 °F /  6.6 °C 30.11in /  1019.5hPa SW 6.0mph /  9.7km/h 12.0mph /  19.3km/h 78% 0.00in /  0mm
21:59 49.9 °F /  9.9 °C 43.3 °F /  6.3 °C 30.11in /  1019.5hPa SW 7.0mph /  11.3km/h 17.0mph /  27.4km/h 78% 0.00in /  0mm
22:04 49.4 °F /  9.7 °C 43.2 °F /  6.2 °C 30.12in /  1019.9hPa WSW 8.0mph /  12.9km/h 17.0mph /  27.4km/h 79% 0.00in /  0mm
22:09 49.0 °F /  9.4 °C 42.8 °F /  6 °C 30.12in /  1019.9hPa SW 7.0mph /  11.3km/h 13.0mph /  20.9km/h 79% 0.00in /  0mm
22:14 48.6 °F /  9.2 °C 42.7 °F /  5.9 °C 30.12in /  1019.9hPa SW 6.0mph /  9.7km/h 11.0mph /  17.7km/h 80% 0.00in /  0mm
22:19 48.2 °F /  9 °C 42.3 °F /  5.7 °C 30.12in /  1019.9hPa SSW 7.0mph /  11.3km/h 14.0mph /  22.5km/h 80% 0.00in /  0mm
22:24 47.7 °F /  8.7 °C 42.2 °F /  5.7 °C 30.13in /  1020.2hPa SW 8.0mph /  12.9km/h 15.0mph /  24.1km/h 81% 0.00in /  0mm
22:29 47.2 °F /  8.4 °C 41.7 °F /  5.4 °C 30.13in /  1020.2hPa SW 5.0mph /  8km/h 14.0mph /  22.5km/h 81% 0.00in /  0mm
22:34 46.8 °F /  8.2 °C 41.6 °F /  5.3 °C 30.13in /  1020.2hPa WSW 7.0mph /  11.3km/h 13.0mph /  20.9km/h 82% 0.00in /  0mm
22:39 46.4 °F /  8 °C 41.2 °F /  5.1 °C 30.13in /  1020.2hPa WSW 7.0mph /  11.3km/h 12.0mph /  19.3km/h 82% 0.00in /  0mm
22:44 46.0 °F /  7.8 °C 41.1 °F /  5.1 °C 30.13in /  1020.2hPa SW 6.0mph /  9.7km/h 9.0mph /  14.5km/h 83% 0.00in /  0mm
22:49 45.7 °F /  7.6 °C 40.8 °F /  4.9 °C 30.13in /  1020.2hPa SW 2.0mph /  3.2km/h 9.0mph /  14.5km/h 83% 0.00in /  0mm
22:54 45.3 °F /  7.4 °C 40.7 °F /  4.8 °C 30.13in /  1020.2hPa SW 4.0mph /  6.4km/h 9.0mph /  14.5km/h 84% 0.00in /  0mm
22:59 45.2 °F /  7.3 °C 41.0 °F /  5 °C 30.13in /  1020.2hPa SW 4.0mph /  6.4km/h 9.0mph /  14.5km/h 85% 0.00in /  0mm
23:04 45.0 °F /  7.2 °C 40.8 °F /  4.9 °C 30.14in /  1020.5hPa SW 5.0mph /  8km/h 11.0mph /  17.7km/h 85% 0.00in /  0mm
23:09 44.8 °F /  7.1 °C 40.6 °F /  4.8 °C 30.14in /  1020.5hPa SW 5.0mph /  8km/h 11.0mph /  17.7km/h 85% 0.00in /  0mm
23:14 44.7 °F /  7.1 °C 40.5 °F /  4.7 °C 30.14in /  1020.5hPa SW 5.0mph /  8km/h 9.0mph /  14.5km/h 85% 0.00in /  0mm
23:19 44.5 °F /  6.9 °C 40.6 °F /  4.8 °C 30.14in /  1020.5hPa SW 6.0mph /  9.7km/h 7.0mph /  11.3km/h 86% 0.00in /  0mm
23:24 44.5 °F /  6.9 °C 40.6 °F /  4.8 °C 30.14in /  1020.5hPa SSW 3.0mph /  4.8km/h 7.0mph /  11.3km/h 86% 0.00in /  0mm
23:29 44.5 °F /  6.9 °C 40.6 °F /  4.8 °C 30.14in /  1020.5hPa SW 3.0mph /  4.8km/h 5.0mph /  8km/h 86% 0.00in /  0mm
23:34 44.7 °F /  7.1 °C 41.1 °F /  5.1 °C 30.14in /  1020.5hPa SW 5.0mph /  8km/h 6.0mph /  9.7km/h 87% 0.00in /  0mm
23:39 44.6 °F /  7 °C 41.0 °F /  5 °C 30.14in /  1020.5hPa SW 3.0mph /  4.8km/h 7.0mph /  11.3km/h 87% 0.00in /  0mm
23:44 44.7 °F /  7.1 °C 41.1 °F /  5.1 °C 30.15in /  1020.9hPa SSW 1.0mph /  1.6km/h 8.0mph /  12.9km/h 87% 0.00in /  0mm
23:49 44.7 °F /  7.1 °C 41.1 °F /  5.1 °C 30.15in /  1020.9hPa SW 3.0mph /  4.8km/h 9.0mph /  14.5km/h 87% 0.00in /  0mm
23:54 44.7 °F /  7.1 °C 41.1 °F /  5.1 °C 30.15in /  1020.9hPa SW 4.0mph /  6.4km/h 9.0mph /  14.5km/h 87% 0.00in /  0mm
23:59 44.6 °F /  7 °C 41.0 °F /  5 °C 30.15in /  1020.9hPa SW 5.0mph /  8km/h 9.0mph /  14.5km/h 87% 0.00in /  0mm
Buffalo, New York, USA
Compliments of Weather Underground - 2.5 mb